Terminal Aerodrome Forecast
Issued by NWS St Louis, MO

Home | Current Version | Previous Version | Text Only | Print | Product List | Glossary On
Versions: 1 2 3 4 5 6 7 8 9 10 11 12 13 14 15 16 17 18 19 20 21 22 23 24 25 26 27 28
330
FTUS43 KLSX 140530
TAFCOU
TAF
KCOU 140530Z 1406/1506 07005KT 6SM BR VCSH OVC008
      TEMPO 1406/1408 4SM -FZRA BR
     FM141000 03005KT 6SM BR OVC007
     FM142300 05005KT P6SM OVC012=

USA.gov is the U.S. government's official web portal to all federal, state and local government web resources and services.